sensor_id;sensor_type;location;lat;lon;timestamp;P1;durP1;ratioP1;P2;durP2;ratioP2
44169;SDS011;29836;52.286;9.576;2023-04-04T00:00:26;10.75;;;2.45;;
44169;SDS011;29836;52.286;9.576;2023-04-04T00:02:52;15.40;;;3.33;;
44169;SDS011;29836;52.286;9.576;2023-04-04T00:05:17;10.02;;;3.88;;
44169;SDS011;29836;52.286;9.576;2023-04-04T00:07:46;7.22;;;3.67;;
44169;SDS011;29836;52.286;9.576;2023-04-04T00:10:12;6.88;;;2.90;;
44169;SDS011;29836;52.286;9.576;2023-04-04T00:12:37;9.02;;;3.63;;
44169;SDS011;29836;52.286;9.576;2023-04-04T00:15:03;17.73;;;4.60;;
44169;SDS011;29836;52.286;9.576;2023-04-04T00:17:29;15.15;;;4.78;;
44169;SDS011;29836;52.286;9.576;2023-04-04T00:19:54;15.25;;;5.15;;
44169;SDS011;29836;52.286;9.576;2023-04-04T00:22:21;10.52;;;3.17;;
44169;SDS011;29836;52.286;9.576;2023-04-04T00:24:47;10.18;;;2.58;;
44169;SDS011;29836;52.286;9.576;2023-04-04T00:27:13;1.65;;;1.48;;
44169;SDS011;29836;52.286;9.576;2023-04-04T00:29:39;8.60;;;3.20;;
44169;SDS011;29836;52.286;9.576;2023-04-04T00:32:04;8.50;;;3.40;;
44169;SDS011;29836;52.286;9.576;2023-04-04T00:34:30;8.40;;;2.35;;
44169;SDS011;29836;52.286;9.576;2023-04-04T00:36:55;3.60;;;1.90;;
44169;SDS011;29836;52.286;9.576;2023-04-04T00:39:21;11.13;;;2.35;;
44169;SDS011;29836;52.286;9.576;2023-04-04T00:41:47;3.50;;;1.75;;
44169;SDS011;29836;52.286;9.576;2023-04-04T00:44:13;9.88;;;2.90;;
44169;SDS011;29836;52.286;9.576;2023-04-04T00:46:39;6.15;;;1.38;;
44169;SDS011;29836;52.286;9.576;2023-04-04T00:49:05;3.70;;;1.25;;
44169;SDS011;29836;52.286;9.576;2023-04-04T00:51:31;3.75;;;0.98;;
44169;SDS011;29836;52.286;9.576;2023-04-04T00:53:56;3.40;;;1.48;;
44169;SDS011;29836;52.286;9.576;2023-04-04T00:56:23;5.28;;;1.10;;
44169;SDS011;29836;52.286;9.576;2023-04-04T00:58:49;2.55;;;0.80;;
44169;SDS011;29836;52.286;9.576;2023-04-04T01:01:14;7.25;;;1.27;;
44169;SDS011;29836;52.286;9.576;2023-04-04T01:03:40;1.48;;;1.20;;
44169;SDS011;29836;52.286;9.576;2023-04-04T01:06:06;9.68;;;2.50;;
44169;SDS011;29836;52.286;9.576;2023-04-04T01:08:32;11.20;;;3.08;;
44169;SDS011;29836;52.286;9.576;2023-04-04T01:11:01;3.33;;;1.30;;
44169;SDS011;29836;52.286;9.576;2023-04-04T01:13:27;9.45;;;2.10;;
44169;SDS011;29836;52.286;9.576;2023-04-04T01:15:53;3.67;;;1.23;;
44169;SDS011;29836;52.286;9.576;2023-04-04T01:18:20;2.85;;;1.33;;
44169;SDS011;29836;52.286;9.576;2023-04-04T01:21:00;1.30;;;0.90;;
44169;SDS011;29836;52.286;9.576;2023-04-04T01:26:10;4.90;;;1.15;;
44169;SDS011;29836;52.286;9.576;2023-04-04T01:28:35;1.90;;;1.10;;
44169;SDS011;29836;52.286;9.576;2023-04-04T01:31:01;4.80;;;2.15;;
44169;SDS011;29836;52.286;9.576;2023-04-04T01:33:31;6.95;;;2.38;;
44169;SDS011;29836;52.286;9.576;2023-04-04T01:38:49;2.97;;;1.35;;
44169;SDS011;29836;52.286;9.576;2023-04-04T01:41:18;5.00;;;1.15;;
44169;SDS011;29836;52.286;9.576;2023-04-04T01:43:45;5.15;;;1.40;;
44169;SDS011;29836;52.286;9.576;2023-04-04T01:46:11;2.53;;;1.00;;
44169;SDS011;29836;52.286;9.576;2023-04-04T01:48:37;2.75;;;1.00;;
44169;SDS011;29836;52.286;9.576;2023-04-04T01:51:02;3.13;;;1.33;;
44169;SDS011;29836;52.286;9.576;2023-04-04T01:53:28;1.63;;;0.98;;
44169;SDS011;29836;52.286;9.576;2023-04-04T01:55:54;2.67;;;0.80;;
44169;SDS011;29836;52.286;9.576;2023-04-04T01:58:20;2.15;;;1.15;;
44169;SDS011;29836;52.286;9.576;2023-04-04T02:00:46;1.10;;;0.90;;
44169;SDS011;29836;52.286;9.576;2023-04-04T02:03:11;1.95;;;1.30;;
44169;SDS011;29836;52.286;9.576;2023-04-04T02:05:37;1.50;;;1.02;;
44169;SDS011;29836;52.286;9.576;2023-04-04T02:08:02;2.25;;;1.10;;
44169;SDS011;29836;52.286;9.576;2023-04-04T02:10:28;1.80;;;0.88;;
44169;SDS011;29836;52.286;9.576;2023-04-04T02:12:54;2.17;;;1.25;;
44169;SDS011;29836;52.286;9.576;2023-04-04T02:15:19;5.50;;;1.25;;
44169;SDS011;29836;52.286;9.576;2023-04-04T02:17:46;2.30;;;1.27;;
44169;SDS011;29836;52.286;9.576;2023-04-04T02:20:12;4.05;;;1.25;;
44169;SDS011;29836;52.286;9.576;2023-04-04T02:22:37;2.40;;;1.13;;
44169;SDS011;29836;52.286;9.576;2023-04-04T02:25:03;2.40;;;1.13;;
44169;SDS011;29836;52.286;9.576;2023-04-04T02:27:29;2.60;;;0.93;;
44169;SDS011;29836;52.286;9.576;2023-04-04T02:29:54;3.38;;;1.55;;
44169;SDS011;29836;52.286;9.576;2023-04-04T02:32:21;1.77;;;1.10;;
44169;SDS011;29836;52.286;9.576;2023-04-04T02:34:46;3.97;;;1.83;;
44169;SDS011;29836;52.286;9.576;2023-04-04T02:37:12;2.25;;;1.20;;
44169;SDS011;29836;52.286;9.576;2023-04-04T02:39:37;3.05;;;1.17;;
44169;SDS011;29836;52.286;9.576;2023-04-04T02:42:03;3.80;;;2.22;;
44169;SDS011;29836;52.286;9.576;2023-04-04T02:44:29;5.43;;;1.75;;
44169;SDS011;29836;52.286;9.576;2023-04-04T02:46:54;3.25;;;1.25;;
44169;SDS011;29836;52.286;9.576;2023-04-04T02:49:20;2.13;;;1.17;;
44169;SDS011;29836;52.286;9.576;2023-04-04T02:51:45;7.40;;;1.15;;
44169;SDS011;29836;52.286;9.576;2023-04-04T02:54:11;2.42;;;1.05;;
44169;SDS011;29836;52.286;9.576;2023-04-04T02:56:37;2.80;;;1.58;;
44169;SDS011;29836;52.286;9.576;2023-04-04T02:59:02;7.25;;;2.95;;
44169;SDS011;29836;52.286;9.576;2023-04-04T03:01:28;2.17;;;1.48;;
44169;SDS011;29836;52.286;9.576;2023-04-04T03:03:54;3.50;;;1.50;;
44169;SDS011;29836;52.286;9.576;2023-04-04T03:06:20;2.08;;;1.20;;
44169;SDS011;29836;52.286;9.576;2023-04-04T03:08:46;12.20;;;2.33;;
44169;SDS011;29836;52.286;9.576;2023-04-04T03:11:11;4.15;;;1.30;;
44169;SDS011;29836;52.286;9.576;2023-04-04T03:13:41;4.00;;;1.67;;
44169;SDS011;29836;52.286;9.576;2023-04-04T03:16:07;3.38;;;1.65;;
44169;SDS011;29836;52.286;9.576;2023-04-04T03:18:34;3.15;;;1.55;;
44169;SDS011;29836;52.286;9.576;2023-04-04T03:21:00;2.25;;;1.35;;
44169;SDS011;29836;52.286;9.576;2023-04-04T03:23:25;2.90;;;1.58;;
44169;SDS011;29836;52.286;9.576;2023-04-04T03:25:51;3.17;;;1.20;;
44169;SDS011;29836;52.286;9.576;2023-04-04T03:28:18;3.80;;;1.08;;
44169;SDS011;29836;52.286;9.576;2023-04-04T03:30:44;2.20;;;1.02;;
44169;SDS011;29836;52.286;9.576;2023-04-04T03:33:09;5.82;;;1.10;;
44169;SDS011;29836;52.286;9.576;2023-04-04T03:35:38;3.00;;;1.90;;
44169;SDS011;29836;52.286;9.576;2023-04-04T03:38:04;4.25;;;1.40;;
44169;SDS011;29836;52.286;9.576;2023-04-04T03:40:30;3.42;;;1.42;;
44169;SDS011;29836;52.286;9.576;2023-04-04T03:42:56;2.88;;;1.60;;
44169;SDS011;29836;52.286;9.576;2023-04-04T03:45:22;3.55;;;2.05;;
44169;SDS011;29836;52.286;9.576;2023-04-04T03:47:48;5.70;;;1.70;;
44169;SDS011;29836;52.286;9.576;2023-04-04T03:50:14;2.50;;;1.33;;
44169;SDS011;29836;52.286;9.576;2023-04-04T03:52:39;3.53;;;1.30;;
44169;SDS011;29836;52.286;9.576;2023-04-04T03:55:05;4.78;;;1.60;;
44169;SDS011;29836;52.286;9.576;2023-04-04T03:57:31;2.85;;;1.45;;
44169;SDS011;29836;52.286;9.576;2023-04-04T03:59:57;3.28;;;1.60;;
44169;SDS011;29836;52.286;9.576;2023-04-04T04:02:22;3.55;;;1.67;;
44169;SDS011;29836;52.286;9.576;2023-04-04T04:04:48;2.55;;;1.83;;
44169;SDS011;29836;52.286;9.576;2023-04-04T04:07:13;1.58;;;1.15;;
44169;SDS011;29836;52.286;9.576;2023-04-04T04:09:39;2.40;;;1.55;;
44169;SDS011;29836;52.286;9.576;2023-04-04T04:12:05;4.70;;;1.88;;
44169;SDS011;29836;52.286;9.576;2023-04-04T04:14:30;2.90;;;1.60;;
44169;SDS011;29836;52.286;9.576;2023-04-04T04:16:56;3.53;;;1.75;;
44169;SDS011;29836;52.286;9.576;2023-04-04T04:19:21;1.45;;;1.20;;
44169;SDS011;29836;52.286;9.576;2023-04-04T04:21:47;3.45;;;1.40;;
44169;SDS011;29836;52.286;9.576;2023-04-04T04:24:12;2.42;;;1.20;;
44169;SDS011;29836;52.286;9.576;2023-04-04T04:26:38;3.05;;;1.67;;
44169;SDS011;29836;52.286;9.576;2023-04-04T04:29:03;3.92;;;1.90;;
44169;SDS011;29836;52.286;9.576;2023-04-04T04:31:29;3.10;;;1.90;;
44169;SDS011;29836;52.286;9.576;2023-04-04T04:33:55;4.30;;;1.60;;
44169;SDS011;29836;52.286;9.576;2023-04-04T04:36:20;5.28;;;1.50;;
44169;SDS011;29836;52.286;9.576;2023-04-04T04:38:46;7.93;;;1.90;;
44169;SDS011;29836;52.286;9.576;2023-04-04T04:41:12;5.15;;;2.03;;
44169;SDS011;29836;52.286;9.576;2023-04-04T04:43:37;2.85;;;1.77;;
44169;SDS011;29836;52.286;9.576;2023-04-04T04:46:03;4.60;;;2.08;;
44169;SDS011;29836;52.286;9.576;2023-04-04T04:48:28;5.15;;;2.47;;
44169;SDS011;29836;52.286;9.576;2023-04-04T04:50:54;4.85;;;3.20;;
44169;SDS011;29836;52.286;9.576;2023-04-04T04:53:20;5.97;;;2.97;;
44169;SDS011;29836;52.286;9.576;2023-04-04T04:55:46;8.65;;;4.35;;
44169;SDS011;29836;52.286;9.576;2023-04-04T04:58:11;7.78;;;3.75;;
44169;SDS011;29836;52.286;9.576;2023-04-04T05:00:37;3.03;;;2.17;;
44169;SDS011;29836;52.286;9.576;2023-04-04T05:03:03;5.20;;;2.75;;
44169;SDS011;29836;52.286;9.576;2023-04-04T05:05:31;4.30;;;2.72;;
44169;SDS011;29836;52.286;9.576;2023-04-04T05:07:58;11.98;;;5.28;;
44169;SDS011;29836;52.286;9.576;2023-04-04T05:10:25;6.47;;;3.55;;
44169;SDS011;29836;52.286;9.576;2023-04-04T05:12:50;7.28;;;3.20;;
44169;SDS011;29836;52.286;9.576;2023-04-04T05:15:15;7.35;;;3.75;;
44169;SDS011;29836;52.286;9.576;2023-04-04T05:17:41;17.42;;;7.22;;
44169;SDS011;29836;52.286;9.576;2023-04-04T05:20:06;22.38;;;8.52;;
44169;SDS011;29836;52.286;9.576;2023-04-04T05:22:32;24.65;;;8.15;;
44169;SDS011;29836;52.286;9.576;2023-04-04T05:24:58;9.23;;;4.03;;
44169;SDS011;29836;52.286;9.576;2023-04-04T05:27:23;5.25;;;2.30;;
44169;SDS011;29836;52.286;9.576;2023-04-04T05:29:49;2.75;;;1.63;;
44169;SDS011;29836;52.286;9.576;2023-04-04T05:32:15;3.92;;;2.08;;
44169;SDS011;29836;52.286;9.576;2023-04-04T05:34:41;3.10;;;2.05;;
44169;SDS011;29836;52.286;9.576;2023-04-04T05:37:06;5.68;;;1.63;;
44169;SDS011;29836;52.286;9.576;2023-04-04T05:39:32;5.10;;;2.05;;
44169;SDS011;29836;52.286;9.576;2023-04-04T05:41:58;5.57;;;2.55;;
44169;SDS011;29836;52.286;9.576;2023-04-04T05:44:23;2.65;;;1.40;;
44169;SDS011;29836;52.286;9.576;2023-04-04T05:46:49;5.60;;;3.03;;
44169;SDS011;29836;52.286;9.576;2023-04-04T05:49:15;12.73;;;4.85;;
44169;SDS011;29836;52.286;9.576;2023-04-04T05:51:40;8.65;;;4.05;;
44169;SDS011;29836;52.286;9.576;2023-04-04T05:54:06;5.20;;;3.00;;
44169;SDS011;29836;52.286;9.576;2023-04-04T05:56:32;4.65;;;2.53;;
44169;SDS011;29836;52.286;9.576;2023-04-04T05:58:58;8.27;;;2.58;;
44169;SDS011;29836;52.286;9.576;2023-04-04T06:01:23;7.88;;;2.30;;
44169;SDS011;29836;52.286;9.576;2023-04-04T06:03:49;8.65;;;2.28;;
44169;SDS011;29836;52.286;9.576;2023-04-04T06:06:15;4.65;;;2.00;;
44169;SDS011;29836;52.286;9.576;2023-04-04T06:08:41;4.57;;;2.80;;
44169;SDS011;29836;52.286;9.576;2023-04-04T06:11:06;4.13;;;2.65;;
44169;SDS011;29836;52.286;9.576;2023-04-04T06:13:32;4.97;;;2.33;;
44169;SDS011;29836;52.286;9.576;2023-04-04T06:15:57;4.85;;;1.65;;
44169;SDS011;29836;52.286;9.576;2023-04-04T06:18:23;3.92;;;2.97;;
44169;SDS011;29836;52.286;9.576;2023-04-04T06:20:48;2.45;;;1.67;;
44169;SDS011;29836;52.286;9.576;2023-04-04T06:23:14;6.13;;;1.85;;
44169;SDS011;29836;52.286;9.576;2023-04-04T06:25:39;4.95;;;2.15;;
44169;SDS011;29836;52.286;9.576;2023-04-04T06:28:05;8.27;;;1.73;;
44169;SDS011;29836;52.286;9.576;2023-04-04T06:30:34;10.75;;;2.80;;
44169;SDS011;29836;52.286;9.576;2023-04-04T06:33:01;3.90;;;2.00;;
44169;SDS011;29836;52.286;9.576;2023-04-04T06:35:27;4.65;;;1.90;;
44169;SDS011;29836;52.286;9.576;2023-04-04T06:37:53;3.67;;;1.52;;
44169;SDS011;29836;52.286;9.576;2023-04-04T06:40:19;3.20;;;1.52;;
44169;SDS011;29836;52.286;9.576;2023-04-04T06:42:49;4.68;;;1.67;;
44169;SDS011;29836;52.286;9.576;2023-04-04T06:45:16;7.18;;;2.42;;
44169;SDS011;29836;52.286;9.576;2023-04-04T06:47:41;4.55;;;1.33;;
44169;SDS011;29836;52.286;9.576;2023-04-04T06:50:07;2.63;;;1.52;;
44169;SDS011;29836;52.286;9.576;2023-04-04T06:52:33;5.07;;;1.83;;
44169;SDS011;29836;52.286;9.576;2023-04-04T06:54:59;2.55;;;1.42;;
44169;SDS011;29836;52.286;9.576;2023-04-04T06:57:25;4.85;;;1.55;;
44169;SDS011;29836;52.286;9.576;2023-04-04T06:59:50;2.72;;;1.35;;
44169;SDS011;29836;52.286;9.576;2023-04-04T07:02:16;2.88;;;1.40;;
44169;SDS011;29836;52.286;9.576;2023-04-04T07:04:41;3.45;;;1.70;;
44169;SDS011;29836;52.286;9.576;2023-04-04T07:07:07;2.05;;;1.48;;
44169;SDS011;29836;52.286;9.576;2023-04-04T07:09:32;3.20;;;1.80;;
44169;SDS011;29836;52.286;9.576;2023-04-04T07:11:58;5.72;;;1.73;;
44169;SDS011;29836;52.286;9.576;2023-04-04T07:14:23;2.65;;;1.45;;
44169;SDS011;29836;52.286;9.576;2023-04-04T07:16:50;3.08;;;1.40;;
44169;SDS011;29836;52.286;9.576;2023-04-04T07:19:16;3.55;;;1.80;;
44169;SDS011;29836;52.286;9.576;2023-04-04T07:21:41;5.90;;;1.73;;
44169;SDS011;29836;52.286;9.576;2023-04-04T07:24:07;3.67;;;1.42;;
44169;SDS011;29836;52.286;9.576;2023-04-04T07:26:33;3.53;;;1.92;;
44169;SDS011;29836;52.286;9.576;2023-04-04T07:28:59;3.75;;;1.33;;
44169;SDS011;29836;52.286;9.576;2023-04-04T07:31:24;3.38;;;1.45;;
44169;SDS011;29836;52.286;9.576;2023-04-04T07:33:51;5.88;;;1.90;;
44169;SDS011;29836;52.286;9.576;2023-04-04T07:36:18;3.80;;;1.90;;
44169;SDS011;29836;52.286;9.576;2023-04-04T07:38:43;3.90;;;1.73;;
44169;SDS011;29836;52.286;9.576;2023-04-04T07:41:09;4.05;;;1.70;;
44169;SDS011;29836;52.286;9.576;2023-04-04T07:43:35;4.35;;;1.65;;
44169;SDS011;29836;52.286;9.576;2023-04-04T07:46:01;4.03;;;1.55;;
44169;SDS011;29836;52.286;9.576;2023-04-04T07:48:27;3.97;;;1.75;;
44169;SDS011;29836;52.286;9.576;2023-04-04T07:50:52;2.72;;;1.30;;
44169;SDS011;29836;52.286;9.576;2023-04-04T07:53:18;5.85;;;1.90;;
44169;SDS011;29836;52.286;9.576;2023-04-04T07:55:43;3.38;;;1.50;;
44169;SDS011;29836;52.286;9.576;2023-04-04T07:58:09;3.30;;;1.40;;
44169;SDS011;29836;52.286;9.576;2023-04-04T08:00:34;4.00;;;1.83;;
44169;SDS011;29836;52.286;9.576;2023-04-04T08:03:00;2.50;;;1.55;;
44169;SDS011;29836;52.286;9.576;2023-04-04T08:05:26;3.65;;;1.48;;
44169;SDS011;29836;52.286;9.576;2023-04-04T08:07:52;4.35;;;1.85;;
44169;SDS011;29836;52.286;9.576;2023-04-04T08:10:17;2.08;;;1.13;;
44169;SDS011;29836;52.286;9.576;2023-04-04T08:12:45;5.35;;;1.30;;
44169;SDS011;29836;52.286;9.576;2023-04-04T08:15:11;3.92;;;1.67;;
44169;SDS011;29836;52.286;9.576;2023-04-04T08:17:36;4.57;;;1.83;;
44169;SDS011;29836;52.286;9.576;2023-04-04T08:20:02;5.57;;;2.20;;
44169;SDS011;29836;52.286;9.576;2023-04-04T08:22:28;3.47;;;2.20;;
44169;SDS011;29836;52.286;9.576;2023-04-04T08:24:54;4.78;;;1.90;;
44169;SDS011;29836;52.286;9.576;2023-04-04T08:27:20;6.50;;;2.25;;
44169;SDS011;29836;52.286;9.576;2023-04-04T08:29:45;4.88;;;2.30;;
44169;SDS011;29836;52.286;9.576;2023-04-04T08:32:12;4.15;;;1.58;;
44169;SDS011;29836;52.286;9.576;2023-04-04T08:34:38;2.30;;;1.50;;
44169;SDS011;29836;52.286;9.576;2023-04-04T08:37:05;3.75;;;1.52;;
44169;SDS011;29836;52.286;9.576;2023-04-04T08:39:31;2.85;;;1.50;;
44169;SDS011;29836;52.286;9.576;2023-04-04T08:42:00;2.60;;;1.35;;
44169;SDS011;29836;52.286;9.576;2023-04-04T08:44:27;5.38;;;1.95;;
44169;SDS011;29836;52.286;9.576;2023-04-04T08:46:54;2.80;;;1.20;;
44169;SDS011;29836;52.286;9.576;2023-04-04T08:49:20;3.05;;;1.02;;
44169;SDS011;29836;52.286;9.576;2023-04-04T08:51:48;3.80;;;1.27;;
44169;SDS011;29836;52.286;9.576;2023-04-04T08:54:16;2.45;;;1.10;;
44169;SDS011;29836;52.286;9.576;2023-04-04T08:56:42;5.10;;;1.10;;
44169;SDS011;29836;52.286;9.576;2023-04-04T08:59:07;3.13;;;1.38;;
44169;SDS011;29836;52.286;9.576;2023-04-04T09:01:35;4.97;;;1.23;;
44169;SDS011;29836;52.286;9.576;2023-04-04T09:04:01;2.10;;;0.98;;
44169;SDS011;29836;52.286;9.576;2023-04-04T09:06:28;2.03;;;0.90;;
44169;SDS011;29836;52.286;9.576;2023-04-04T09:08:54;2.50;;;1.00;;
44169;SDS011;29836;52.286;9.576;2023-04-04T09:11:21;2.45;;;1.15;;
44169;SDS011;29836;52.286;9.576;2023-04-04T09:13:49;3.05;;;1.30;;
44169;SDS011;29836;52.286;9.576;2023-04-04T09:16:15;3.05;;;1.30;;
44169;SDS011;29836;52.286;9.576;2023-04-04T09:18:41;5.47;;;1.45;;
44169;SDS011;29836;52.286;9.576;2023-04-04T09:21:10;2.97;;;1.33;;
44169;SDS011;29836;52.286;9.576;2023-04-04T09:23:36;3.25;;;1.30;;
44169;SDS011;29836;52.286;9.576;2023-04-04T09:26:02;4.35;;;1.35;;
44169;SDS011;29836;52.286;9.576;2023-04-04T09:28:28;2.85;;;1.25;;
44169;SDS011;29836;52.286;9.576;2023-04-04T09:30:53;2.28;;;1.10;;
44169;SDS011;29836;52.286;9.576;2023-04-04T09:33:19;5.50;;;1.25;;
44169;SDS011;29836;52.286;9.576;2023-04-04T09:35:50;2.80;;;1.40;;
44169;SDS011;29836;52.286;9.576;2023-04-04T09:38:22;3.92;;;1.20;;
44169;SDS011;29836;52.286;9.576;2023-04-04T09:40:48;7.55;;;1.58;;
44169;SDS011;29836;52.286;9.576;2023-04-04T09:43:13;3.75;;;1.50;;
44169;SDS011;29836;52.286;9.576;2023-04-04T09:45:41;6.13;;;1.20;;
44169;SDS011;29836;52.286;9.576;2023-04-04T09:48:09;1.92;;;1.10;;
44169;SDS011;29836;52.286;9.576;2023-04-04T09:50:35;2.53;;;1.08;;
44169;SDS011;29836;52.286;9.576;2023-04-04T09:53:01;2.97;;;1.40;;
44169;SDS011;29836;52.286;9.576;2023-04-04T09:55:34;2.33;;;1.38;;
44169;SDS011;29836;52.286;9.576;2023-04-04T09:58:13;3.65;;;1.27;;
44169;SDS011;29836;52.286;9.576;2023-04-04T10:00:40;3.53;;;1.13;;
44169;SDS011;29836;52.286;9.576;2023-04-04T10:03:08;2.80;;;1.33;;
44169;SDS011;29836;52.286;9.576;2023-04-04T10:05:36;2.95;;;1.50;;
44169;SDS011;29836;52.286;9.576;2023-04-04T10:08:12;6.10;;;1.52;;
44169;SDS011;29836;52.286;9.576;2023-04-04T10:10:48;6.43;;;1.58;;
44169;SDS011;29836;52.286;9.576;2023-04-04T10:13:21;6.30;;;1.73;;
44169;SDS011;29836;52.286;9.576;2023-04-04T10:15:47;6.55;;;1.60;;
44169;SDS011;29836;52.286;9.576;2023-04-04T10:18:13;3.28;;;1.40;;
44169;SDS011;29836;52.286;9.576;2023-04-04T10:20:40;3.75;;;1.23;;
44169;SDS011;29836;52.286;9.576;2023-04-04T10:23:07;3.15;;;1.10;;
44169;SDS011;29836;52.286;9.576;2023-04-04T10:25:32;3.15;;;1.23;;
44169;SDS011;29836;52.286;9.576;2023-04-04T10:27:59;2.88;;;1.25;;
44169;SDS011;29836;52.286;9.576;2023-04-04T10:30:25;4.07;;;1.20;;
44169;SDS011;29836;52.286;9.576;2023-04-04T10:33:01;2.67;;;1.38;;
44169;SDS011;29836;52.286;9.576;2023-04-04T10:35:31;3.30;;;1.20;;
44169;SDS011;29836;52.286;9.576;2023-04-04T10:37:59;5.88;;;1.33;;
44169;SDS011;29836;52.286;9.576;2023-04-04T10:40:29;2.65;;;1.15;;
44169;SDS011;29836;52.286;9.576;2023-04-04T10:42:58;5.78;;;0.98;;
44169;SDS011;29836;52.286;9.576;2023-04-04T10:45:27;5.07;;;0.98;;
44169;SDS011;29836;52.286;9.576;2023-04-04T10:47:55;2.83;;;0.95;;
44169;SDS011;29836;52.286;9.576;2023-04-04T10:50:21;1.88;;;0.90;;
44169;SDS011;29836;52.286;9.576;2023-04-04T10:52:46;3.58;;;1.25;;
44169;SDS011;29836;52.286;9.576;2023-04-04T10:55:13;7.78;;;1.60;;
44169;SDS011;29836;52.286;9.576;2023-04-04T10:57:40;4.55;;;1.20;;
44169;SDS011;29836;52.286;9.576;2023-04-04T11:00:08;3.05;;;1.45;;
44169;SDS011;29836;52.286;9.576;2023-04-04T11:02:47;3.72;;;1.40;;
44169;SDS011;29836;52.286;9.576;2023-04-04T11:05:17;2.40;;;0.98;;
44169;SDS011;29836;52.286;9.576;2023-04-04T11:08:24;2.92;;;1.20;;
44169;SDS011;29836;52.286;9.576;2023-04-04T11:10:48;7.85;;;1.27;;
44169;SDS011;29836;52.286;9.576;2023-04-04T11:21:07;2.60;;;1.05;;
44169;SDS011;29836;52.286;9.576;2023-04-04T11:26:33;5.38;;;1.42;;
44169;SDS011;29836;52.286;9.576;2023-04-04T11:29:00;2.63;;;1.20;;
44169;SDS011;29836;52.286;9.576;2023-04-04T11:44:29;2.38;;;1.08;;
44169;SDS011;29836;52.286;9.576;2023-04-04T11:47:00;3.28;;;1.40;;
44169;SDS011;29836;52.286;9.576;2023-04-04T11:49:37;2.22;;;1.20;;
44169;SDS011;29836;52.286;9.576;2023-04-04T11:52:05;3.97;;;1.23;;
44169;SDS011;29836;52.286;9.576;2023-04-04T11:54:36;2.50;;;1.23;;
44169;SDS011;29836;52.286;9.576;2023-04-04T11:57:06;1.63;;;0.82;;
44169;SDS011;29836;52.286;9.576;2023-04-04T11:59:32;1.27;;;0.93;;
44169;SDS011;29836;52.286;9.576;2023-04-04T12:01:58;1.73;;;0.93;;
44169;SDS011;29836;52.286;9.576;2023-04-04T12:04:26;4.72;;;1.42;;
44169;SDS011;29836;52.286;9.576;2023-04-04T12:06:52;3.55;;;1.30;;
44169;SDS011;29836;52.286;9.576;2023-04-04T12:09:19;2.03;;;1.13;;
44169;SDS011;29836;52.286;9.576;2023-04-04T12:11:46;2.15;;;1.05;;
44169;SDS011;29836;52.286;9.576;2023-04-04T12:16:43;6.28;;;1.25;;
44169;SDS011;29836;52.286;9.576;2023-04-04T12:19:11;2.42;;;1.23;;
44169;SDS011;29836;52.286;9.576;2023-04-04T12:21:36;2.92;;;1.13;;
44169;SDS011;29836;52.286;9.576;2023-04-04T12:24:02;3.10;;;1.00;;
44169;SDS011;29836;52.286;9.576;2023-04-04T12:26:28;2.03;;;1.13;;
44169;SDS011;29836;52.286;9.576;2023-04-04T12:28:55;2.65;;;1.20;;
44169;SDS011;29836;52.286;9.576;2023-04-04T12:31:22;5.22;;;1.08;;
44169;SDS011;29836;52.286;9.576;2023-04-04T12:33:51;2.78;;;1.15;;
44169;SDS011;29836;52.286;9.576;2023-04-04T12:36:17;1.90;;;0.90;;
44169;SDS011;29836;52.286;9.576;2023-04-04T12:41:34;2.28;;;0.85;;
44169;SDS011;29836;52.286;9.576;2023-04-04T12:44:03;3.80;;;1.25;;
44169;SDS011;29836;52.286;9.576;2023-04-04T12:46:39;3.58;;;1.10;;
44169;SDS011;29836;52.286;9.576;2023-04-04T12:49:06;3.38;;;1.55;;
44169;SDS011;29836;52.286;9.576;2023-04-04T12:51:34;2.25;;;1.27;;
44169;SDS011;29836;52.286;9.576;2023-04-04T12:54:00;1.63;;;1.05;;
44169;SDS011;29836;52.286;9.576;2023-04-04T12:56:28;2.17;;;0.90;;
44169;SDS011;29836;52.286;9.576;2023-04-04T12:58:58;3.60;;;1.40;;
44169;SDS011;29836;52.286;9.576;2023-04-04T13:01:27;2.30;;;1.30;;
44169;SDS011;29836;52.286;9.576;2023-04-04T13:03:54;2.17;;;1.20;;
44169;SDS011;29836;52.286;9.576;2023-04-04T13:06:21;5.40;;;1.40;;
44169;SDS011;29836;52.286;9.576;2023-04-04T13:08:53;3.25;;;1.30;;
44169;SDS011;29836;52.286;9.576;2023-04-04T13:11:19;3.28;;;1.13;;
44169;SDS011;29836;52.286;9.576;2023-04-04T13:13:45;3.05;;;1.10;;
44169;SDS011;29836;52.286;9.576;2023-04-04T13:16:12;2.55;;;1.10;;
44169;SDS011;29836;52.286;9.576;2023-04-04T13:18:39;2.47;;;1.15;;
44169;SDS011;29836;52.286;9.576;2023-04-04T13:21:07;1.77;;;1.13;;
44169;SDS011;29836;52.286;9.576;2023-04-04T13:23:34;2.47;;;0.88;;
44169;SDS011;29836;52.286;9.576;2023-04-04T13:26:03;2.15;;;1.05;;
44169;SDS011;29836;52.286;9.576;2023-04-04T13:28:29;2.17;;;1.25;;
44169;SDS011;29836;52.286;9.576;2023-04-04T13:30:55;2.00;;;1.20;;
44169;SDS011;29836;52.286;9.576;2023-04-04T13:33:21;2.58;;;1.15;;
44169;SDS011;29836;52.286;9.576;2023-04-04T13:35:46;3.72;;;1.13;;
44169;SDS011;29836;52.286;9.576;2023-04-04T13:38:13;3.63;;;1.48;;
44169;SDS011;29836;52.286;9.576;2023-04-04T13:40:40;4.20;;;1.10;;
44169;SDS011;29836;52.286;9.576;2023-04-04T13:43:05;1.88;;;1.20;;
44169;SDS011;29836;52.286;9.576;2023-04-04T13:45:31;2.22;;;0.90;;
44169;SDS011;29836;52.286;9.576;2023-04-04T13:47:58;1.75;;;1.05;;
44169;SDS011;29836;52.286;9.576;2023-04-04T13:50:23;2.50;;;1.20;;
44169;SDS011;29836;52.286;9.576;2023-04-04T13:52:49;1.67;;;0.98;;
44169;SDS011;29836;52.286;9.576;2023-04-04T13:55:17;1.15;;;0.90;;
44169;SDS011;29836;52.286;9.576;2023-04-04T13:57:43;2.88;;;1.08;;
44169;SDS011;29836;52.286;9.576;2023-04-04T14:00:09;5.68;;;1.70;;
44169;SDS011;29836;52.286;9.576;2023-04-04T14:02:35;2.30;;;1.00;;
44169;SDS011;29836;52.286;9.576;2023-04-04T14:05:00;1.92;;;1.20;;
44169;SDS011;29836;52.286;9.576;2023-04-04T14:07:26;2.58;;;1.23;;
44169;SDS011;29836;52.286;9.576;2023-04-04T14:09:51;1.40;;;1.00;;
44169;SDS011;29836;52.286;9.576;2023-04-04T14:12:17;2.40;;;1.40;;
44169;SDS011;29836;52.286;9.576;2023-04-04T14:14:42;4.05;;;1.02;;
44169;SDS011;29836;52.286;9.576;2023-04-04T14:17:08;1.90;;;1.15;;
44169;SDS011;29836;52.286;9.576;2023-04-04T14:19:33;3.13;;;1.13;;
44169;SDS011;29836;52.286;9.576;2023-04-04T14:22:02;1.65;;;1.20;;
44169;SDS011;29836;52.286;9.576;2023-04-04T14:24:29;3.20;;;1.60;;
44169;SDS011;29836;52.286;9.576;2023-04-04T14:26:54;3.35;;;1.20;;
44169;SDS011;29836;52.286;9.576;2023-04-04T14:29:21;2.00;;;1.17;;
44169;SDS011;29836;52.286;9.576;2023-04-04T14:31:46;1.45;;;0.90;;
44169;SDS011;29836;52.286;9.576;2023-04-04T14:34:12;1.30;;;0.90;;
44169;SDS011;29836;52.286;9.576;2023-04-04T14:36:37;5.68;;;1.10;;
44169;SDS011;29836;52.286;9.576;2023-04-04T14:39:03;1.35;;;0.88;;
44169;SDS011;29836;52.286;9.576;2023-04-04T14:41:28;3.67;;;1.10;;
44169;SDS011;29836;52.286;9.576;2023-04-04T14:43:54;2.13;;;1.30;;
44169;SDS011;29836;52.286;9.576;2023-04-04T14:46:19;1.67;;;1.08;;
44169;SDS011;29836;52.286;9.576;2023-04-04T14:48:45;2.65;;;1.23;;
44169;SDS011;29836;52.286;9.576;2023-04-04T14:51:11;2.83;;;1.30;;
44169;SDS011;29836;52.286;9.576;2023-04-04T14:53:36;4.03;;;1.38;;
44169;SDS011;29836;52.286;9.576;2023-04-04T14:56:02;3.58;;;1.50;;
44169;SDS011;29836;52.286;9.576;2023-04-04T14:58:28;6.57;;;1.30;;
44169;SDS011;29836;52.286;9.576;2023-04-04T15:00:53;3.65;;;1.05;;
44169;SDS011;29836;52.286;9.576;2023-04-04T15:03:19;2.05;;;1.30;;
44169;SDS011;29836;52.286;9.576;2023-04-04T15:05:45;3.25;;;1.10;;
44169;SDS011;29836;52.286;9.576;2023-04-04T15:08:12;2.08;;;1.33;;
44169;SDS011;29836;52.286;9.576;2023-04-04T15:10:37;1.13;;;0.85;;
44169;SDS011;29836;52.286;9.576;2023-04-04T15:13:03;2.30;;;1.25;;
44169;SDS011;29836;52.286;9.576;2023-04-04T15:15:28;9.98;;;1.48;;
44169;SDS011;29836;52.286;9.576;2023-04-04T15:17:54;3.20;;;1.15;;